createdAt,value
2022-12-31T00:01:32.339Z,1.40
2022-12-31T00:06:35.618Z,1.42
2022-12-31T00:11:37.925Z,1.45
2022-12-31T00:16:41.883Z,1.23
2022-12-31T00:21:43.634Z,1.30
2022-12-31T00:26:45.183Z,1.20
2022-12-31T00:31:46.799Z,1.20
2022-12-31T00:36:48.392Z,1.27
2022-12-31T00:41:50.057Z,1.40
2022-12-31T00:46:51.629Z,1.25
2022-12-31T00:51:53.215Z,1.30
2022-12-31T00:56:54.784Z,1.55
2022-12-31T01:01:56.510Z,1.60
2022-12-31T01:06:58.147Z,1.60
2022-12-31T01:11:59.792Z,1.90
2022-12-31T01:17:01.345Z,1.70
2022-12-31T01:22:02.934Z,1.67
2022-12-31T01:27:04.543Z,2.05
2022-12-31T01:32:06.112Z,2.00
2022-12-31T01:37:07.678Z,1.90
2022-12-31T01:42:11.679Z,2.05
2022-12-31T01:47:16.086Z,2.03
2022-12-31T01:52:35.481Z,2.10
2022-12-31T01:57:37.673Z,1.80
2022-12-31T02:02:39.376Z,2.00
2022-12-31T02:07:41.241Z,1.90
2022-12-31T02:12:42.934Z,1.80
2022-12-31T02:18:00.490Z,1.73
2022-12-31T02:23:29.783Z,2.00
2022-12-31T02:28:49.376Z,2.03
2022-12-31T02:33:53.191Z,1.80
2022-12-31T02:38:54.979Z,1.63
2022-12-31T02:43:56.515Z,2.08
2022-12-31T02:49:12.253Z,1.73
2022-12-31T02:54:22.778Z,2.03
2022-12-31T03:00:19.757Z,1.88
2022-12-31T03:05:24.362Z,1.75
2022-12-31T03:10:25.968Z,1.80
2022-12-31T03:15:32.496Z,1.90
2022-12-31T03:20:59.449Z,1.75
2022-12-31T03:26:01.927Z,1.80
2022-12-31T03:31:04.235Z,1.85
2022-12-31T03:36:08.754Z,1.88
2022-12-31T03:41:11.076Z,1.85
2022-12-31T03:46:12.709Z,1.50
2022-12-31T03:51:14.450Z,1.50
2022-12-31T03:56:16.168Z,1.65
2022-12-31T04:01:17.850Z,1.50
2022-12-31T04:06:19.526Z,1.58
2022-12-31T04:11:21.358Z,1.60
2022-12-31T04:16:22.993Z,1.65
2022-12-31T04:21:27.745Z,1.30
2022-12-31T04:26:31.712Z,1.50
2022-12-31T04:31:33.398Z,1.50
2022-12-31T04:36:35.372Z,1.52
2022-12-31T04:41:37.028Z,1.27
2022-12-31T04:46:38.619Z,1.27
2022-12-31T04:51:40.339Z,1.60
2022-12-31T04:56:41.924Z,1.23
2022-12-31T05:01:43.597Z,1.50
2022-12-31T05:06:45.266Z,1.20
2022-12-31T05:11:46.833Z,1.20
2022-12-31T05:16:48.475Z,1.20
2022-12-31T05:22:10.075Z,1.20
2022-12-31T05:27:11.717Z,1.10
2022-12-31T05:32:13.319Z,1.08
2022-12-31T05:37:14.902Z,1.20
2022-12-31T05:42:16.486Z,1.00
2022-12-31T05:47:18.239Z,0.93
2022-12-31T05:52:21.470Z,0.32
2022-12-31T05:57:23.092Z,0.40
2022-12-31T06:02:24.810Z,0.30
2022-12-31T06:07:26.449Z,0.38
2022-12-31T06:12:28.134Z,0.30
2022-12-31T06:17:32.372Z,0.30
2022-12-31T06:22:33.967Z,0.50
2022-12-31T06:27:35.559Z,0.35
2022-12-31T06:32:37.129Z,0.40
2022-12-31T06:37:38.723Z,0.50
2022-12-31T06:42:42.167Z,0.40
2022-12-31T06:47:43.713Z,0.50
2022-12-31T06:52:45.278Z,0.40
2022-12-31T06:57:47.147Z,0.50
2022-12-31T07:02:57.894Z,0.55
2022-12-31T07:08:06.209Z,0.70
2022-12-31T07:13:17.053Z,0.50
2022-12-31T07:18:27.730Z,0.60
2022-12-31T07:23:29.520Z,0.60
2022-12-31T07:28:47.559Z,0.63
2022-12-31T07:33:56.528Z,0.73
2022-12-31T07:39:21.085Z,0.60
2022-12-31T07:45:01.100Z,0.80
2022-12-31T07:50:03.772Z,1.00
2022-12-31T07:55:05.830Z,0.65
2022-12-31T08:00:16.750Z,0.70
2022-12-31T08:05:29.876Z,0.80
2022-12-31T08:11:10.549Z,0.80
2022-12-31T08:16:13.227Z,0.70
2022-12-31T08:21:34.963Z,0.70
2022-12-31T08:26:46.905Z,0.70
2022-12-31T08:32:03.846Z,1.00
2022-12-31T08:37:36.719Z,0.70
2022-12-31T08:42:44.068Z,0.63
2022-12-31T08:47:59.831Z,0.73
2022-12-31T08:53:02.400Z,0.85
2022-12-31T08:58:09.929Z,0.75
2022-12-31T09:03:19.078Z,0.70
2022-12-31T09:08:24.506Z,0.90
2022-12-31T09:13:26.001Z,0.80
2022-12-31T09:18:33.046Z,0.50
2022-12-31T09:23:35.175Z,0.70
2022-12-31T09:29:06.970Z,0.70
2022-12-31T09:34:30.046Z,0.80
2022-12-31T09:39:41.121Z,0.70
2022-12-31T09:45:08.309Z,0.80
2022-12-31T09:50:19.162Z,0.63
2022-12-31T09:55:37.275Z,0.65
2022-12-31T10:00:53.993Z,0.80
2022-12-31T10:06:32.997Z,0.90
2022-12-31T10:11:55.638Z,0.70
2022-12-31T10:17:13.946Z,0.82
2022-12-31T10:22:33.853Z,1.17
2022-12-31T10:27:42.084Z,1.00
2022-12-31T10:33:00.608Z,1.05
2022-12-31T10:38:27.060Z,0.80
2022-12-31T10:43:55.616Z,0.70
2022-12-31T10:49:15.478Z,0.73
2022-12-31T10:54:34.691Z,0.80
2022-12-31T10:59:48.271Z,0.70
2022-12-31T11:05:01.958Z,0.85
2022-12-31T11:10:20.277Z,0.73
2022-12-31T11:15:21.845Z,0.85
2022-12-31T11:20:46.513Z,0.70
2022-12-31T11:26:00.382Z,1.77
2022-12-31T11:31:23.414Z,0.80
2022-12-31T11:36:26.182Z,1.00
2022-12-31T11:41:49.897Z,0.77
2022-12-31T11:47:25.528Z,0.90
2022-12-31T11:52:38.432Z,1.05
2022-12-31T11:57:42.099Z,1.13
2022-12-31T12:02:46.997Z,0.90
2022-12-31T12:07:49.681Z,0.90
2022-12-31T12:12:53.003Z,0.80
2022-12-31T12:17:59.652Z,0.73
2022-12-31T12:23:03.013Z,1.10
2022-12-31T12:28:19.335Z,0.90
2022-12-31T12:33:21.628Z,0.90
2022-12-31T12:38:23.676Z,0.93
2022-12-31T12:43:31.095Z,0.90
2022-12-31T12:48:44.552Z,0.70
2022-12-31T12:54:04.161Z,0.70
2022-12-31T12:59:24.171Z,0.80
2022-12-31T13:04:36.053Z,0.88
2022-12-31T13:10:05.551Z,0.80
2022-12-31T13:15:19.059Z,1.02
2022-12-31T13:20:25.957Z,0.82
2022-12-31T13:25:45.896Z,0.88
2022-12-31T13:30:50.901Z,0.90
2022-12-31T13:35:55.982Z,0.77
2022-12-31T13:40:57.497Z,1.00
2022-12-31T13:46:25.873Z,0.90
2022-12-31T13:51:46.717Z,0.95
2022-12-31T13:56:49.655Z,0.90
2022-12-31T14:02:13.223Z,1.05
2022-12-31T14:07:18.757Z,0.90
2022-12-31T14:12:26.323Z,1.00
2022-12-31T14:17:49.208Z,1.30
2022-12-31T14:23:00.294Z,1.10
2022-12-31T14:28:03.267Z,0.98
2022-12-31T14:33:13.778Z,1.20
2022-12-31T14:38:52.414Z,1.08
2022-12-31T14:44:12.017Z,0.88
2022-12-31T14:49:16.415Z,1.00
2022-12-31T14:54:37.476Z,1.10
2022-12-31T14:59:40.859Z,1.15
2022-12-31T15:04:45.208Z,1.20
2022-12-31T15:09:57.225Z,1.23
2022-12-31T15:15:37.074Z,1.20
2022-12-31T15:21:25.137Z,1.30
2022-12-31T15:26:31.550Z,1.30
2022-12-31T15:31:35.099Z,1.25
2022-12-31T15:36:39.386Z,1.33
2022-12-31T15:42:10.311Z,1.50
2022-12-31T15:47:30.796Z,1.70
2022-12-31T15:52:50.812Z,1.95
2022-12-31T15:57:54.509Z,3.60
2022-12-31T16:02:56.377Z,3.17
2022-12-31T16:07:59.203Z,1.90
2022-12-31T16:13:00.886Z,2.22
2022-12-31T16:18:03.488Z,3.03
2022-12-31T16:23:25.672Z,2.42
2022-12-31T16:28:32.379Z,2.20
2022-12-31T16:33:34.331Z,3.90
2022-12-31T16:38:37.305Z,4.32
2022-12-31T16:43:40.908Z,3.70
2022-12-31T16:48:56.190Z,2.45
2022-12-31T16:53:58.390Z,2.80
2022-12-31T16:59:33.476Z,2.15
2022-12-31T17:04:39.993Z,2.15
2022-12-31T17:09:46.706Z,2.45
2022-12-31T17:14:50.142Z,2.45
2022-12-31T17:19:56.329Z,4.10
2022-12-31T17:25:20.782Z,4.70
2022-12-31T17:30:28.190Z,15.48
2022-12-31T17:35:35.013Z,6.00
2022-12-31T17:40:51.007Z,3.22
2022-12-31T17:45:54.707Z,2.78
2022-12-31T17:51:01.043Z,3.13
2022-12-31T17:56:05.029Z,2.28
2022-12-31T18:01:08.333Z,2.25
2022-12-31T18:06:16.315Z,2.60
2022-12-31T18:11:21.341Z,26.85
2022-12-31T18:16:23.103Z,12.90
2022-12-31T18:21:34.795Z,10.27
2022-12-31T18:26:36.362Z,7.80
2022-12-31T18:31:39.384Z,22.95
2022-12-31T18:36:41.420Z,14.00
2022-12-31T18:41:51.330Z,15.88
2022-12-31T18:46:52.910Z,5.25
2022-12-31T18:51:57.047Z,5.25
2022-12-31T18:56:58.797Z,17.63
2022-12-31T19:02:00.515Z,7.75
2022-12-31T19:07:02.192Z,3.42
2022-12-31T19:12:04.063Z,3.45
2022-12-31T19:22:06.167Z,4.20
2022-12-31T19:27:09.787Z,4.55
2022-12-31T19:32:11.416Z,5.05
2022-12-31T19:37:16.225Z,13.00
2022-12-31T19:42:17.859Z,10.07
2022-12-31T19:47:19.481Z,14.75
2022-12-31T19:52:21.062Z,13.13
2022-12-31T19:57:22.629Z,5.85
2022-12-31T20:02:24.425Z,7.22
2022-12-31T20:07:27.353Z,6.05
2022-12-31T20:12:29.545Z,8.88
2022-12-31T20:17:31.395Z,9.45
2022-12-31T20:22:33.055Z,9.88
2022-12-31T20:27:34.766Z,5.70
2022-12-31T20:32:36.392Z,4.40
2022-12-31T20:37:37.979Z,4.07
2022-12-31T20:42:40.652Z,5.10
2022-12-31T20:47:42.254Z,7.05
2022-12-31T20:52:44.197Z,7.03
2022-12-31T20:57:45.791Z,4.60
2022-12-31T21:02:55.509Z,4.03
2022-12-31T21:07:58.367Z,5.30
2022-12-31T21:12:59.933Z,5.32
2022-12-31T21:18:01.549Z,5.45
2022-12-31T21:23:03.168Z,4.22
2022-12-31T21:28:04.912Z,4.43
2022-12-31T21:33:07.203Z,3.85
2022-12-31T21:38:09.026Z,3.47
2022-12-31T21:43:11.468Z,4.60
2022-12-31T21:48:20.622Z,4.43
2022-12-31T21:53:27.896Z,4.15
2022-12-31T21:58:33.659Z,3.67
2022-12-31T22:03:35.577Z,4.10
2022-12-31T22:08:37.307Z,5.13
2022-12-31T22:13:39.283Z,6.35
2022-12-31T22:18:42.960Z,6.25
2022-12-31T22:23:44.876Z,7.50
2022-12-31T22:28:47.015Z,10.25
2022-12-31T22:33:48.961Z,10.57
2022-12-31T22:38:54.258Z,13.88
2022-12-31T22:44:03.148Z,14.45
2022-12-31T22:49:05.975Z,14.85
2022-12-31T22:54:07.569Z,19.83
2022-12-31T22:59:09.526Z,16.40
2022-12-31T23:04:12.077Z,26.00
2022-12-31T23:09:34.028Z,70.30
2022-12-31T23:14:54.757Z,57.45
2022-12-31T23:20:14.695Z,51.83
2022-12-31T23:25:16.516Z,49.95
2022-12-31T23:30:18.149Z,34.78
2022-12-31T23:35:19.757Z,34.42
2022-12-31T23:40:22.113Z,27.77
2022-12-31T23:45:28.182Z,22.85
2022-12-31T23:50:32.767Z,16.77
2022-12-31T23:55:34.407Z,13.68
